Time;durP1;ratioP1;P1;durP2;ratioP2;P2;SDS_P1;SDS_P2;PMS_P1;PMS_P2;Temp;Humidity;BMP_temperature;BMP_pressure;BME280_temperature;BME280_humidity;BME280_pressure;Samples;Min_cycle;Max_cycle;Signal;HPM_P1;HPM_P2
2022/02/15 00:01:51;;;;;;;;;2.33;2.33;;;;;9.26;85.38;100397.81;6350715;22;45403;-85
2022/02/15 00:04:17;;;;;;;;;4.00;4.00;;;;;9.18;85.79;100397.69;6322604;22;45614;-85
2022/02/15 00:06:42;;;;;;;;;2.67;2.67;;;;;9.07;86.36;100383.41;6350422;22;46126;-85
2022/02/15 00:09:08;;;;;;;;;4.00;3.00;;;;;9.12;86.34;100399.38;6347350;22;45384;-84
2022/02/15 00:11:34;;;;;;;;;5.33;3.67;;;;;9.11;86.18;100392.28;6350559;22;45763;-84
2022/02/15 00:14:00;;;;;;;;;1.67;1.67;;;;;9.07;86.35;100387.81;6348854;22;45316;-84
2022/02/15 00:16:26;;;;;;;;;4.00;4.00;;;;;9.11;86.46;100389.63;6345879;22;48196;-84
2022/02/15 00:18:52;;;;;;;;;5.33;3.00;;;;;9.15;86.06;100396.75;6348280;22;45306;-85
2022/02/15 00:21:17;;;;;;;;;3.00;3.00;;;;;9.19;86.25;100406.59;6345255;22;44687;-84
2022/02/15 00:23:43;;;;;;;;;3.00;3.00;;;;;9.18;86.65;100397.69;6318476;22;45353;-84
2022/02/15 00:26:09;;;;;;;;;1.67;1.67;;;;;9.22;86.10;100409.25;6346328;22;45788;-84
2022/02/15 00:28:34;;;;;;;;;1.67;1.67;;;;;9.13;86.30;100412.69;6348451;22;45722;-84
2022/02/15 00:31:00;;;;;;;;;4.33;3.00;;;;;9.06;85.78;100415.22;6320308;22;45356;-85
2022/02/15 00:33:26;;;;;;;;;3.33;2.67;;;;;9.07;86.27;100425.84;6347645;22;45390;-85
2022/02/15 00:35:51;;;;;;;;;1.67;1.67;;;;;9.04;86.16;100433.75;6347788;22;45426;-85
2022/02/15 00:38:17;;;;;;;;;2.00;2.00;;;;;9.01;86.10;100436.38;6346800;22;45420;-85
2022/02/15 00:40:45;;;;;;;;;2.00;2.00;;;;;8.87;85.98;100406.97;6347774;22;45358;-85
2022/02/15 00:43:11;;;;;;;;;4.00;4.00;;;;;9.01;86.46;100436.38;6349232;22;45320;-85
2022/02/15 00:45:36;;;;;;;;;1.00;1.00;;;;;8.81;86.73;100401.59;6345903;22;46667;-84
2022/02/15 00:48:08;;;;;;;;;2.00;2.00;;;;;8.95;86.90;100420.38;6320457;22;45456;-84
2022/02/15 00:50:33;;;;;;;;;2.33;2.33;;;;;8.76;86.78;100400.59;6346736;22;45391;-85
2022/02/15 00:52:59;;;;;;;;;3.00;3.00;;;;;8.76;87.06;100393.53;6349273;22;45391;-84
2022/02/15 00:55:25;;;;;;;;;3.00;3.00;;;;;9.07;86.70;100456.78;6345894;22;47903;-85
2022/02/15 00:57:50;;;;;;;;;4.00;4.00;;;;;9.08;86.64;100453.28;6321270;22;45365;-85
2022/02/15 01:00:16;;;;;;;;;4.00;4.00;;;;;9.10;86.64;100459.50;6348294;22;45388;-84
2022/02/15 01:02:44;;;;;;;;;3.00;2.00;;;;;9.05;86.83;100453.22;6321834;22;45298;-85
2022/02/15 01:05:10;;;;;;;;;4.00;4.00;;;;;8.89;86.94;100434.41;6322323;22;47517;-85
2022/02/15 01:07:35;;;;;;;;;7.00;4.00;;;;;9.06;87.32;100455.00;6347801;22;45472;-84
2022/02/15 01:10:02;;;;;;;;;3.33;3.00;;;;;9.09;87.01;100465.66;6319436;22;45066;-86
2022/02/15 01:12:27;;;;;;;;;3.00;3.00;;;;;8.83;87.09;100415.75;6319897;22;45699;-85
2022/02/15 01:14:54;;;;;;;;;2.33;1.67;;;;;8.97;86.91;100430.13;6346105;22;46520;-84
2022/02/15 01:17:20;;;;;;;;;3.00;2.00;;;;;9.16;86.98;100473.72;6319561;22;45529;-84
2022/02/15 01:19:45;;;;;;;;;5.33;4.00;;;;;9.16;87.06;100476.38;6316803;22;45291;-84
2022/02/15 01:22:11;;;;;;;;;2.67;2.67;;;;;9.07;87.21;100459.44;6347392;22;45405;-85
2022/02/15 01:24:36;;;;;;;;;4.00;2.67;;;;;9.03;86.81;100471.78;6313539;22;46639;-85
2022/02/15 01:27:03;;;;;;;;;2.00;2.00;;;;;9.01;87.11;100469.09;6347046;22;45674;-84
2022/02/15 01:29:29;;;;;;;;;2.00;2.00;;;;;8.79;86.55;100435.13;6318484;22;45353;-86
2022/02/15 01:31:55;;;;;;;;;4.67;2.00;;;;;8.70;86.89;100434.97;6347598;22;45487;-84
2022/02/15 01:34:21;;;;;;;;;2.00;2.00;;;;;8.90;86.43;100475.97;6347929;22;45431;-85
2022/02/15 01:36:47;;;;;;;;;4.00;2.67;;;;;8.74;86.97;100458.91;6345588;22;45392;-85
2022/02/15 01:39:14;;;;;;;;;3.00;3.00;;;;;8.95;87.10;100490.22;6347770;22;45363;-86
2022/02/15 01:41:47;;;;;;;;;2.00;1.00;;;;;8.70;87.41;100453.53;6317346;22;45780;-84
2022/02/15 01:44:12;;;;;;;;;2.00;2.00;;;;;8.65;87.51;100455.22;6311395;22;47097;-84
2022/02/15 01:46:39;;;;;;;;;3.00;2.33;;;;;8.78;86.96;100478.41;6339268;22;45444;-86
2022/02/15 01:49:05;;;;;;;;;2.00;2.00;;;;;8.73;87.48;100480.13;6311864;22;45732;-86
2022/02/15 01:51:32;;;;;;;;;1.67;1.67;;;;;8.62;87.51;100456.03;6311105;22;45740;-85
2022/02/15 01:53:58;;;;;;;;;2.00;2.00;;;;;8.70;87.32;100485.34;6310567;22;47094;-85
2022/02/15 01:56:26;;;;;;;;;2.00;2.00;;;;;8.87;87.49;100512.19;6337457;22;45288;-85
2022/02/15 01:58:51;;;;;;;;;2.00;2.00;;;;;8.79;87.69;100501.44;6345015;22;45340;-85
2022/02/15 02:01:17;;;;;;;;;3.67;1.00;;;;;8.75;87.22;100496.94;6342335;22;44863;-88
2022/02/15 02:03:44;;;;;;;;;1.33;1.33;;;;;8.61;87.44;100486.09;6345035;22;45322;-88
2022/02/15 02:06:09;;;;;;;;;1.00;1.00;;;;;8.77;87.30;100516.41;6344080;22;45585;-88
2022/02/15 02:08:35;;;;;;;;;3.33;3.33;;;;;8.69;87.32;100502.13;6311764;22;45466;-88
2022/02/15 02:11:02;;;;;;;;;1.00;1.00;;;;;8.86;87.55;100521.88;6343860;22;45340;-88
2022/02/15 02:13:28;;;;;;;;;0.67;0.67;;;;;8.74;87.27;100519.00;6315836;22;45027;-87
2022/02/15 02:15:53;;;;;;;;;1.67;1.67;;;;;8.85;87.34;100527.13;6317762;22;45332;-88
2022/02/15 02:18:19;;;;;;;;;1.67;1.67;;;;;8.85;87.52;100535.09;6317502;22;45659;-88
2022/02/15 02:20:46;;;;;;;;;7.00;2.00;;;;;8.88;86.94;100536.03;6315621;22;45887;-88
2022/02/15 02:23:16;;;;;;;;;4.33;3.00;;;;;8.92;87.23;100537.88;6317021;22;47738;-88
2022/02/15 02:25:42;;;;;;;;;0.67;0.67;;;;;8.86;87.14;100515.69;6340952;22;45671;-88
2022/02/15 02:28:08;;;;;;;;;1.00;1.00;;;;;8.75;86.84;100510.19;6343568;22;45239;-88
2022/02/15 02:30:34;;;;;;;;;2.00;2.00;;;;;8.89;87.22;100532.53;6345445;22;45499;-88
2022/02/15 02:33:19;;;;;;;;;2.00;1.67;;;;;8.87;86.79;100520.13;6347406;22;45539;-87
2022/02/15 02:35:46;;;;;;;;;2.00;1.00;;;;;8.98;86.65;100547.72;6316967;22;45468;-87
2022/02/15 02:38:11;;;;;;;;;1.00;1.00;;;;;8.86;86.99;100532.47;6320485;22;45270;-87
2022/02/15 02:40:37;;;;;;;;;2.00;1.00;;;;;8.90;86.91;100554.66;6315137;22;45699;-87
2022/02/15 02:43:02;;;;;;;;;2.00;1.00;;;;;8.87;86.99;100538.69;6347339;22;45322;-87
2022/02/15 02:45:28;;;;;;;;;6.67;3.33;;;;;8.80;86.86;100530.59;6344762;22;45265;-86
2022/02/15 02:47:55;;;;;;;;;1.00;1.00;;;;;8.91;86.60;100545.84;6345113;22;45411;-88
2022/02/15 02:50:24;;;;;;;;;1.00;1.00;;;;;8.93;86.93;100563.56;6319997;22;44979;-87
2022/02/15 02:52:50;;;;;;;;;2.00;2.00;;;;;8.70;86.45;100541.03;6322051;22;47278;-87
2022/02/15 02:55:16;;;;;;;;;2.00;2.00;;;;;8.64;86.64;100546.22;6345349;22;44787;-87
2022/02/15 02:57:41;;;;;;;;;3.33;2.00;;;;;8.63;86.98;100544.44;6320572;22;45405;-88
2022/02/15 03:00:11;;;;;;;;;1.33;1.33;;;;;8.64;87.00;100556.81;6311954;22;45301;-88
2022/02/15 03:02:36;;;;;;;;;2.67;2.00;;;;;8.59;87.01;100572.63;6339884;22;46834;-88
2022/02/15 03:08:23;;;;;;;;;1.67;1.67;;;;;8.44;87.52;100575.84;6338379;22;45326;-88
2022/02/15 03:10:49;;;;;;;;;1.00;1.00;;;;;8.45;87.68;100587.38;6344905;22;45318;-87
2022/02/15 03:13:14;;;;;;;;;0.00;0.00;;;;;8.40;87.52;100585.50;6317514;22;46688;-88
2022/02/15 03:15:40;;;;;;;;;0.67;0.67;;;;;8.36;87.47;100595.97;6314197;22;45208;-87
2022/02/15 03:22:25;;;;;;;;;1.67;1.67;;;;;8.43;87.81;100595.28;6341927;22;45576;-87
2022/02/15 03:24:51;;;;;;;;;1.00;1.00;;;;;8.35;88.14;100594.22;6320014;22;46677;-87
2022/02/15 03:27:16;;;;;;;;;2.33;1.00;;;;;8.40;87.72;100605.78;6352288;22;45302;-88
2022/02/15 03:29:42;;;;;;;;;1.67;1.67;;;;;8.35;87.94;100612.75;6352646;22;45484;-87
2022/02/15 03:32:07;;;;;;;;;1.00;1.00;;;;;8.39;87.56;100619.91;6318037;22;44808;-88
2022/02/15 03:34:33;;;;;;;;;1.00;1.00;;;;;8.32;87.52;100618.91;6345776;22;45310;-87
2022/02/15 03:36:58;;;;;;;;;2.00;2.00;;;;;8.36;87.38;100625.13;6350140;22;45666;-87
2022/02/15 03:39:24;;;;;;;;;2.00;2.00;;;;;8.18;87.30;100604.44;6349582;22;44825;-88
2022/02/15 03:44:33;;;;;;;;;1.00;1.00;;;;;8.26;87.05;100632.00;6350590;22;45396;-87
2022/02/15 03:46:59;;;;;;;;;0.67;0.67;;;;;8.23;86.96;100639.00;6299237;22;45732;-88
2022/02/15 03:49:24;;;;;;;;;2.00;1.00;;;;;8.24;87.33;100652.28;6315644;22;45300;-88
2022/02/15 03:51:50;;;;;;;;;2.00;2.00;;;;;8.17;87.09;100637.97;6287503;22;45495;-88
2022/02/15 03:54:15;;;;;;;;;2.00;1.00;;;;;8.13;87.12;100649.38;6286661;22;45324;-88
2022/02/15 03:56:42;;;;;;;;;4.00;3.67;;;;;8.14;87.42;100651.19;6286921;22;45278;-88
2022/02/15 03:59:08;;;;;;;;;1.00;1.00;;;;;8.13;87.60;100674.97;6314037;22;45319;-88
2022/02/15 04:01:35;;;;;;;;;0.00;0.00;;;;;8.05;87.56;100665.97;6289359;22;45772;-88
2022/02/15 04:04:01;;;;;;;;;3.33;1.00;;;;;8.05;87.38;100674.78;6288647;22;47919;-88
2022/02/15 04:06:26;;;;;;;;;2.00;2.00;;;;;7.98;87.64;100670.22;6287161;22;45368;-88
2022/02/15 04:08:51;;;;;;;;;1.00;1.00;;;;;7.99;87.40;100677.31;6286488;22;45425;-88
2022/02/15 04:11:17;;;;;;;;;1.00;1.00;;;;;7.89;87.75;100672.66;6287576;22;45440;-88
2022/02/15 04:13:43;;;;;;;;;1.00;1.00;;;;;7.98;87.68;100697.59;6313428;22;46007;-88
2022/02/15 04:16:10;;;;;;;;;0.00;0.00;;;;;7.79;87.89;100677.72;6300851;22;45849;-88
2022/02/15 04:18:36;;;;;;;;;3.00;2.00;;;;;7.89;87.79;100696.47;6311176;22;45285;-88
2022/02/15 04:21:01;;;;;;;;;1.33;1.33;;;;;7.87;87.84;100696.44;6311154;22;45298;-88
2022/02/15 04:23:26;;;;;;;;;2.67;1.00;;;;;7.96;87.65;100722.25;6285068;22;47013;-88
2022/02/15 04:25:52;;;;;;;;;4.00;1.00;;;;;7.85;87.24;100714.03;6285752;22;45371;-88
2022/02/15 04:28:18;;;;;;;;;1.00;1.00;;;;;7.75;87.74;100694.38;6315267;22;45337;-88
2022/02/15 04:30:43;;;;;;;;;2.67;1.00;;;;;7.93;87.45;100732.78;6286730;22;45677;-88
2022/02/15 04:33:09;;;;;;;;;0.00;0.00;;;;;7.81;87.56;100705.13;6301749;22;47099;-88
2022/02/15 04:35:35;;;;;;;;;1.00;1.00;;;;;7.88;87.68;100726.47;6314319;22;44848;-88
2022/02/15 04:38:00;;;;;;;;;1.00;1.00;;;;;7.92;87.83;100733.66;6286232;22;45696;-88
2022/02/15 04:40:26;;;;;;;;;2.00;1.00;;;;;7.85;87.51;100727.28;6312890;22;45341;-87
2022/02/15 04:42:51;;;;;;;;;2.33;1.00;;;;;7.87;87.39;100748.50;6287424;22;48075;-88
2022/02/15 04:45:17;;;;;;;;;3.00;1.33;;;;;7.64;87.90;100722.34;6314872;22;45488;-87
2022/02/15 04:47:42;;;;;;;;;2.00;1.00;;;;;7.84;87.45;100754.63;6337686;22;45484;-87
2022/02/15 04:50:09;;;;;;;;;1.00;0.00;;;;;7.78;87.90;100751.81;6312802;22;45480;-87
2022/02/15 04:52:34;;;;;;;;;2.00;2.00;;;;;7.67;87.90;100730.34;6338941;22;48109;-88
2022/02/15 04:54:59;;;;;;;;;1.00;0.67;;;;;7.79;87.88;100764.19;6311618;22;45350;-87
2022/02/15 04:57:25;;;;;;;;;2.00;0.67;;;;;7.65;88.13;100749.69;6337988;22;45245;-88
2022/02/15 04:59:50;;;;;;;;;1.00;1.00;;;;;7.56;87.92;100730.09;6311504;22;45325;-88
2022/02/15 05:02:16;;;;;;;;;1.00;1.00;;;;;7.70;87.98;100759.56;6337274;22;46615;-88
2022/02/15 05:04:50;;;;;;;;;3.00;3.00;;;;;7.45;87.77;100717.41;6312044;22;45320;-88
2022/02/15 05:07:21;;;;;;;;;0.67;0.67;;;;;7.76;87.48;100780.91;6313128;22;45110;-87
2022/02/15 05:09:48;;;;;;;;;1.33;0.67;;;;;7.71;88.38;100782.50;6338855;22;45503;-88
2022/02/15 05:12:14;;;;;;;;;3.00;3.00;;;;;7.66;88.13;100773.56;6313750;22;45927;-87
2022/02/15 05:14:40;;;;;;;;;1.00;1.00;;;;;7.65;87.82;100774.41;6338317;22;45405;-88
2022/02/15 05:17:06;;;;;;;;;1.67;1.00;;;;;7.65;88.10;100770.88;6313019;22;45383;-87
2022/02/15 05:19:32;;;;;;;;;1.33;1.00;;;;;7.56;88.02;100756.56;6315051;22;45368;-87
2022/02/15 05:21:58;;;;;;;;;1.00;1.00;;;;;7.56;87.79;100767.13;6290203;22;47226;-87
2022/02/15 05:24:25;;;;;;;;;0.67;0.67;;;;;7.33;88.24;100731.22;6316667;22;45320;-87
2022/02/15 05:26:50;;;;;;;;;0.67;0.67;;;;;7.58;87.81;100780.41;6317014;22;45348;-87
2022/02/15 05:29:17;;;;;;;;;1.00;1.00;;;;;7.56;88.06;100779.47;6317359;22;45327;-88
2022/02/15 05:31:45;;;;;;;;;0.67;0.67;;;;;7.52;87.81;100780.25;6341653;22;46696;-88
2022/02/15 05:34:10;;;;;;;;;0.67;0.67;;;;;7.49;88.05;100788.97;6314494;22;45419;-87
2022/02/15 05:36:36;;;;;;;;;2.67;2.00;;;;;7.35;88.00;100762.19;6316775;22;45325;-87
2022/02/15 05:39:02;;;;;;;;;1.00;1.00;;;;;7.44;87.79;100779.16;6316122;22;45400;-89
2022/02/15 05:41:27;;;;;;;;;0.00;0.00;;;;;7.49;87.96;100790.75;6314481;22;46880;-86
2022/02/15 05:43:53;;;;;;;;;1.33;1.33;;;;;7.46;87.97;100788.03;6315299;22;45716;-87
2022/02/15 05:46:18;;;;;;;;;2.00;2.00;;;;;7.41;87.81;100777.28;6340503;22;45368;-87
2022/02/15 05:48:44;;;;;;;;;2.67;2.00;;;;;7.40;87.70;100780.81;6314299;22;44775;-87
2022/02/15 05:51:09;;;;;;;;;1.00;1.00;;;;;7.39;87.83;100787.84;6316894;22;45288;-87
2022/02/15 05:53:35;;;;;;;;;1.00;1.00;;;;;7.41;87.66;100793.16;6316133;22;45414;-87
2022/02/15 05:56:02;;;;;;;;;1.00;1.00;;;;;7.38;87.81;100790.47;6318795;22;45357;-87
2022/02/15 05:58:32;;;;;;;;;2.00;1.00;;;;;7.43;88.01;100795.88;6342667;22;44890;-88
2022/02/15 06:00:59;;;;;;;;;1.00;0.67;;;;;7.36;87.98;100786.88;6315982;22;47549;-88
2022/02/15 06:06:09;;;;;;;;;0.67;0.67;;;;;7.37;87.76;100791.28;6317507;22;45299;-88
2022/02/15 06:08:34;;;;;;;;;1.33;1.00;;;;;7.36;87.38;100792.16;6316434;22;45257;-87
2022/02/15 06:11:01;;;;;;;;;3.67;3.00;;;;;7.37;87.30;100796.59;6315306;22;47298;-87
2022/02/15 06:13:26;;;;;;;;;1.00;1.00;;;;;7.30;87.10;100795.53;6315090;22;46123;-88
2022/02/15 06:15:58;;;;;;;;;2.00;2.00;;;;;7.37;87.31;100817.75;6317586;22;45294;-88
2022/02/15 06:18:24;;;;;;;;;2.00;1.00;;;;;7.33;87.18;100822.09;6318369;22;45399;-88
2022/02/15 06:20:49;;;;;;;;;0.00;0.00;;;;;7.32;87.16;100824.69;6316079;22;46021;-87
2022/02/15 06:23:15;;;;;;;;;0.00;0.00;;;;;7.35;87.13;100827.41;6313616;22;45385;-87
2022/02/15 06:25:41;;;;;;;;;1.67;1.67;;;;;7.22;87.22;100810.28;6314904;22;45355;-87
2022/02/15 06:28:07;;;;;;;;;2.67;0.00;;;;;7.26;86.61;100822.75;6314287;22;45772;-87
2022/02/15 06:30:34;;;;;;;;;1.00;1.00;;;;;7.24;86.93;100815.63;6314215;22;45392;-88
2022/02/15 06:33:00;;;;;;;;;3.00;3.00;;;;;7.22;86.83;100834.97;6315276;22;45374;-88
2022/02/15 06:35:26;;;;;;;;;1.67;1.67;;;;;7.05;86.76;100812.47;6315986;22;45276;-87
2022/02/15 06:37:54;;;;;;;;;2.00;1.33;;;;;7.16;87.06;100825.97;6317747;22;45238;-87
2022/02/15 06:40:20;;;;;;;;;3.00;2.00;;;;;7.03;86.85;100811.50;6344189;22;46477;-88
2022/02/15 06:42:48;;;;;;;;;2.33;1.00;;;;;7.18;87.23;100842.78;6318587;22;45366;-88
2022/02/15 06:45:14;;;;;;;;;3.00;3.00;;;;;6.97;87.23;100809.56;6320180;22;45417;-88
2022/02/15 06:47:40;;;;;;;;;2.00;2.00;;;;;7.07;87.39;100845.13;6291053;22;45379;-86
2022/02/15 06:53:27;;;;;;;;;1.00;1.00;;;;;7.08;87.16;100856.59;6310556;22;45388;-87
2022/02/15 06:55:53;;;;;;;;;1.33;1.33;;;;;7.12;87.30;100858.47;6287949;22;45741;-88
2022/02/15 06:58:18;;;;;;;;;1.00;1.00;;;;;7.12;87.42;100856.72;6290763;22;45341;-88
2022/02/15 07:00:44;;;;;;;;;2.33;2.33;;;;;7.17;87.73;100868.34;6289560;22;48004;-88
2022/02/15 07:03:09;;;;;;;;;2.00;2.00;;;;;7.15;87.39;100870.06;6288111;22;45608;-88
2022/02/15 07:05:35;;;;;;;;;2.33;2.33;;;;;7.09;87.29;100859.28;6289593;22;45366;-88
2022/02/15 07:08:00;;;;;;;;;3.00;2.00;;;;;7.12;87.05;100866.41;6316131;22;45351;-87
2022/02/15 07:10:26;;;;;;;;;1.00;1.00;;;;;7.20;86.77;100875.47;6317728;22;45277;-88
2022/02/15 07:13:03;;;;;;;;;5.00;2.00;;;;;7.28;86.77;100871.31;6294164;22;45520;-88
2022/02/15 07:15:29;;;;;;;;;2.00;2.00;;;;;7.30;86.71;100864.31;6317347;22;45216;-88
2022/02/15 07:17:57;;;;;;;;;1.00;1.00;;;;;7.20;86.27;100839.31;6294930;22;45496;-88
2022/02/15 07:20:23;;;;;;;;;3.00;3.00;;;;;7.39;86.49;100875.19;6293081;22;47742;-86
2022/02/15 07:22:49;;;;;;;;;2.33;1.00;;;;;7.38;86.48;100875.13;6318533;22;45458;-88
2022/02/15 07:25:15;;;;;;;;;1.00;1.00;;;;;7.13;86.26;100839.09;6293132;22;44785;-87
2022/02/15 07:27:42;;;;;;;;;2.00;2.00;;;;;7.33;86.43;100869.72;6290772;22;45390;-88
2022/02/15 07:30:08;;;;;;;;;3.67;2.33;;;;;7.33;86.18;100877.66;6287326;22;46636;-89
2022/02/15 07:32:34;;;;;;;;;2.00;2.00;;;;;7.31;86.33;100871.41;6287254;22;44834;-89
2022/02/15 07:35:00;;;;;;;;;1.00;1.00;;;;;7.33;86.31;100863.50;6316761;22;45574;-87
2022/02/15 07:37:26;;;;;;;;;6.00;3.00;;;;;7.44;86.14;100887.63;6289286;22;45472;-88
2022/02/15 07:39:52;;;;;;;;;1.67;1.00;;;;;7.49;85.87;100893.94;6318982;22;45499;-87
2022/02/15 07:42:25;;;;;;;;;2.00;1.00;;;;;7.41;85.88;100881.41;6318947;22;45724;-89
2022/02/15 07:44:51;;;;;;;;;0.00;0.00;;;;;7.29;85.99;100854.59;6290449;22;44777;-89
2022/02/15 07:47:20;;;;;;;;;3.00;3.00;;;;;7.31;85.71;100852.88;6305163;22;44888;-88
2022/02/15 07:49:47;;;;;;;;;2.00;2.00;;;;;7.46;85.53;100876.25;6321677;22;45685;-86
2022/02/15 07:52:57;;;;;;;;;;;;;;;;;;;;;
2022/02/15 07:55:24;;;;;;;;;3.00;1.00;;;;;7.59;85.48;100888.06;6308107;22;68578;-87
2022/02/15 07:58:06;;;;;;;;;3.00;3.00;;;;;7.68;85.80;100903.34;6324706;22;45050;-88
2022/02/15 08:00:52;;;;;;;;;2.00;2.00;;;;;7.66;85.46;100894.44;6321128;22;45017;-88
2022/02/15 08:03:19;;;;;;;;;5.00;2.67;;;;;7.52;85.42;100872.88;6322747;22;45217;-88
2022/02/15 08:05:45;;;;;;;;;2.00;2.00;;;;;7.72;85.28;100911.41;6320560;22;45340;-89
2022/02/15 08:08:11;;;;;;;;;3.00;1.33;;;;;7.69;85.18;100899.81;6345751;22;45180;-88
2022/02/15 08:11:31;;;;;;;;;;;;;;;;;;;;;
2022/02/15 08:14:53;;;;;;;;;0.67;0.67;;;;;7.96;84.89;100931.47;6166995;23;72211;-88
2022/02/15 08:18:55;;;;;;;;;;;;;;;;;;;;;
2022/02/15 08:22:07;;;;;;;;;2.00;2.00;;;;;8.07;84.57;100930.00;6107617;23;66302;-87
2022/02/15 09:03:02;;;;;;;;;;;;;;;;;;;;;
2022/02/15 09:06:12;;;;;;;;;5.33;3.00;;;;;8.77;82.76;100923.00;6306530;22;72005;-87
2022/02/15 09:08:49;;;;;;;;;2.00;2.00;;;;;8.58;82.30;100881.91;6224805;22;45344;-87
2022/02/15 09:11:16;;;;;;;;;2.00;2.00;;;;;8.71;82.33;100892.81;6227767;22;45316;-87
2022/02/15 09:13:42;;;;;;;;;2.00;0.67;;;;;8.70;82.10;100880.38;6203370;22;45785;-85
2022/02/15 09:16:15;;;;;;;;;1.00;1.00;;;;;8.77;81.48;100882.34;6201975;22;45323;-85
2022/02/15 09:18:42;;;;;;;;;4.00;2.00;;;;;8.99;81.75;100911.16;6201687;22;45425;-87
2022/02/15 09:21:32;;;;;;;;;4.67;2.00;;;;;9.02;81.50;100892.63;6201514;22;45343;-87
2022/02/15 09:24:01;;;;;;;;;1.67;1.67;;;;;9.18;81.33;100924.84;6223509;22;45400;-87
2022/02/15 09:26:27;;;;;;;;;1.00;1.00;;;;;9.25;81.10;100937.41;6224741;22;45487;-85
2022/02/15 09:28:52;;;;;;;;;2.33;2.33;;;;;9.32;80.80;100926.03;6199006;22;45418;-84
2022/02/15 09:31:18;;;;;;;;;1.00;0.67;;;;;9.32;80.96;100914.53;6199357;22;45432;-83
2022/02/15 09:34:22;;;;;;;;;4.67;2.00;;;;;9.47;80.60;100929.88;6225122;22;45671;-87
2022/02/15 09:36:48;;;;;;;;;1.00;1.00;;;;;9.21;80.43;100888.66;6222840;22;44898;-86
2022/02/15 09:39:17;;;;;;;;;2.00;1.00;;;;;9.33;80.13;100892.41;6199154;22;45360;-85
2022/02/15 09:41:52;;;;;;;;;2.00;2.00;;;;;9.35;80.10;100885.38;6197380;22;45495;-86
2022/02/15 09:45:04;;;;;;;;;2.00;2.00;;;;;9.70;80.49;100928.63;6215618;22;45370;-87
2022/02/15 09:47:35;;;;;;;;;3.00;1.00;;;;;9.80;80.17;100929.72;6318308;22;45537;-86
2022/02/15 09:50:06;;;;;;;;;2.33;1.00;;;;;9.70;79.96;100896.75;6317141;22;44773;-86
2022/02/15 09:52:47;;;;;;;;;2.33;1.33;;;;;9.93;79.76;100925.53;6318777;22;45382;-86
2022/02/15 09:55:24;;;;;;;;;3.00;2.00;;;;;10.04;79.71;100918.66;6317060;22;45704;-87
2022/02/15 09:57:54;;;;;;;;;1.00;1.00;;;;;9.92;79.82;100875.94;6314017;22;45336;-86
2022/02/15 10:00:22;;;;;;;;;1.67;1.00;;;;;10.28;78.85;100926.22;6320994;22;44731;-86
2022/02/15 10:02:57;;;;;;;;;1.00;1.00;;;;;10.15;78.79;100885.19;6316239;22;45380;-86
2022/02/15 10:09:14;;;;;;;;;2.00;2.00;;;;;10.59;78.05;100855.84;6252047;22;45172;-87
2022/02/15 10:11:45;;;;;;;;;2.67;2.67;;;;;11.14;77.99;100914.31;6222723;22;45473;-86
2022/02/15 10:14:38;;;;;;;;;4.00;1.33;;;;;11.28;77.26;100919.84;6228811;22;45299;-87
2022/02/15 10:17:37;;;;;;;;;6.00;3.00;;;;;11.32;76.20;100940.31;6229080;22;46994;-86
2022/02/15 10:41:35;;;;;;;;;;;;;;;;;;;;;
2022/02/15 10:54:31;;;;;;;;;1.67;1.00;;;;;11.22;75.35;100901.13;6318142;22;45576;-87
2022/02/15 10:57:14;;;;;;;;;2.67;1.00;;;;;11.38;75.23;100913.78;6320277;22;45281;-86
2022/02/15 11:20:50;;;;;;;;;4.33;3.00;;;;;11.90;73.03;100862.94;6266736;22;45517;-85
2022/02/15 11:23:28;;;;;;;;;5.00;3.00;;;;;12.05;72.83;100854.19;6227084;22;45450;-87
2022/02/15 11:26:26;;;;;;;;;3.00;2.33;;;;;12.26;72.97;100871.25;6255100;22;45153;-85
2022/02/15 11:29:33;;;;;;;;;3.67;2.33;;;;;12.58;72.93;100872.47;6259162;22;45325;-85
2022/02/15 11:32:48;;;;;;;;;2.00;2.00;;;;;12.60;72.03;100859.09;6231245;22;44946;-85
2022/02/15 11:39:33;;;;;;;;;1.00;1.00;;;;;13.13;71.68;100885.28;6104625;23;45219;-87
2022/02/15 11:42:53;;;;;;;;;2.67;2.33;;;;;12.91;70.77;100836.22;6080676;23;44845;-89
2022/02/15 11:45:41;;;;;;;;;5.00;5.00;;;;;13.20;71.13;100870.19;6019250;23;45345;-87
2022/02/15 11:58:57;;;;;;;;;;;;;;;;;;;;;
2022/02/15 12:05:35;;;;;;;;;2.67;2.00;;;;;13.53;69.45;100807.13;6083147;23;45302;-88
2022/02/15 12:19:45;;;;;;;;;1.00;1.00;;;;;13.84;68.29;100824.16;6311577;22;45894;-86
2022/02/15 12:37:56;;;;;;;;;2.67;2.67;;;;;13.55;68.89;100810.69;6320915;22;46131;-84
2022/02/15 12:40:22;;;;;;;;;4.00;4.00;;;;;13.49;68.88;100802.66;6311086;22;45344;-86
2022/02/15 12:44:01;;;;;;;;;;;;;;;;;;;;;
2022/02/15 12:46:40;;;;;;;;;5.00;4.00;;;;;13.54;68.83;100809.81;6193229;23;44890;-87
2022/02/15 12:49:18;;;;;;;;;3.00;3.00;;;;;13.37;68.70;100771.44;6199527;23;46337;-88
2022/02/15 12:52:14;;;;;;;;;4.00;4.00;;;;;13.54;68.73;100795.56;6172740;23;45375;-88
2022/02/15 12:54:53;;;;;;;;;2.00;2.00;;;;;13.53;69.01;100793.75;6172195;23;44798;-86
2022/02/15 12:57:26;;;;;;;;;1.00;1.00;;;;;13.36;68.88;100762.56;6198037;23;44825;-85
2022/02/15 13:00:00;;;;;;;;;2.67;2.67;;;;;13.33;68.73;100757.22;6195912;23;46937;-87
2022/02/15 13:02:49;;;;;;;;;6.00;2.00;;;;;13.32;68.51;100739.38;6197151;23;45331;-85
2022/02/15 13:05:35;;;;;;;;;1.00;1.00;;;;;13.52;67.91;100771.50;6166703;23;44866;-85
2022/02/15 13:08:17;;;;;;;;;2.00;1.00;;;;;13.62;68.49;100784.91;6153991;23;45483;-85
2022/02/15 13:11:08;;;;;;;;;1.00;1.00;;;;;13.49;67.71;100775.94;6173690;23;45562;-84
2022/02/15 13:13:40;;;;;;;;;6.67;4.00;;;;;13.40;67.57;100780.38;6196966;23;44855;-86
2022/02/15 13:17:08;;;;;;;;;;;;;;;;;;;;;
2022/02/15 13:19:42;;;;;;;;;3.00;1.00;;;;;13.06;68.56;100762.41;6075587;23;65888;-86
2022/02/15 13:22:18;;;;;;;;;3.33;3.00;;;;;13.05;68.89;100771.28;6075409;23;45565;-85
2022/02/15 13:43:47;;;;;;;;;;;;;;;;;;;;;
2022/02/15 13:46:42;;;;;;;;;2.33;2.33;;;;;12.75;70.71;100754.28;5908456;24;65514;-86
2022/02/15 13:49:31;;;;;;;;;4.67;2.67;;;;;12.59;70.82;100724.81;5931558;23;45499;-86
2022/02/15 13:52:39;;;;;;;;;2.00;2.00;;;;;12.76;70.54;100756.03;5932790;24;45346;-87
2022/02/15 13:55:31;;;;;;;;;1.67;1.00;;;;;12.66;70.96;100747.09;5933614;23;44921;-87
2022/02/15 14:04:53;;;;;;;;;1.00;1.00;;;;;12.64;71.23;100726.63;5992099;23;45505;-87
2022/02/15 14:20:13;;;;;;;;;1.33;1.33;;;;;12.45;72.46;100710.53;6195981;23;45713;-88
2022/02/15 14:26:49;;;;;;;;;1.67;1.67;;;;;12.33;73.07;100746.00;6164902;23;45360;-87
2022/02/15 14:29:20;;;;;;;;;2.33;1.33;;;;;12.21;73.83;100728.13;6149911;23;44850;-87
2022/02/15 14:32:30;;;;;;;;;3.67;3.67;;;;;12.11;74.55;100723.63;6171393;23;45380;-87
2022/02/15 14:38:57;;;;;;;;;3.00;3.00;;;;;12.12;75.03;100717.41;6198392;22;46458;-88
2022/02/15 14:42:16;;;;;;;;;3.33;2.33;;;;;11.85;74.91;100680.75;6267434;22;45471;-88
2022/02/15 14:45:09;;;;;;;;;1.00;1.00;;;;;12.16;75.05;100735.22;6194506;23;44947;-87
2022/02/15 14:48:22;;;;;;;;;;;;;;;;;;;;;
2022/02/15 14:52:10;;;;;;;;;;;;;;;;;;;;;
2022/02/15 14:54:33;;;;;;;;;3.67;2.00;;;;;11.94;75.88;100691.53;6131341;23;45010;-87
2022/02/15 14:57:36;;;;;;;;;3.67;3.00;;;;;12.10;75.91;100707.59;6107685;23;45864;-88
2022/02/15 15:01:05;;;;;;;;;;;;;;;;;;;;;
2022/02/15 15:03:55;;;;;;;;;2.33;2.33;;;;;11.74;78.00;100664.69;6254448;22;74408;-87
2022/02/15 15:06:41;;;;;;;;;4.33;3.33;;;;;11.59;78.76;100678.78;6156824;22;45405;-88
2022/02/15 15:12:26;;;;;;;;;4.33;4.33;;;;;11.48;79.54;100691.09;6290863;22;46667;-86
2022/02/15 15:18:53;;;;;;;;;9.33;5.67;;;;;11.40;79.98;100627.09;6166171;22;44897;-88
2022/02/15 15:22:31;;;;;;;;;5.00;5.00;;;;;11.82;80.27;100686.94;6142341;23;45356;-88
2022/02/15 15:25:58;;;;;;;;;;;;;;;;;;;;;
2022/02/15 15:28:57;;;;;;;;;7.00;4.33;;;;;11.82;80.68;100697.59;6164195;23;73672;-87
2022/02/15 15:31:28;;;;;;;;;5.00;4.67;;;;;11.80;79.86;100699.38;6140126;23;44816;-87
2022/02/15 15:33:59;;;;;;;;;4.00;3.00;;;;;11.69;79.77;100647.75;6123195;23;44965;-87
2022/02/15 15:36:26;;;;;;;;;4.00;4.00;;;;;11.76;80.05;100656.69;6142374;23;45877;-87
2022/02/15 15:39:34;;;;;;;;;;;;;;;;;;;;;
2022/02/15 15:42:10;;;;;;;;;3.00;3.00;;;;;11.86;79.79;100673.66;6141840;23;72442;-87
2022/02/15 15:44:49;;;;;;;;;4.67;4.33;;;;;11.79;80.43;100664.69;6163597;23;44828;-88
2022/02/15 15:47:35;;;;;;;;;3.33;3.33;;;;;11.82;80.54;100676.28;6163242;23;44755;-88
2022/02/15 15:50:17;;;;;;;;;;;;;;;;;;;;;
2022/02/15 15:52:54;;;;;;;;;4.67;4.67;;;;;11.51;80.84;100612.97;6287245;22;71873;-88